Time;durP1;ratioP1;P1;durP2;ratioP2;P2;SDS_P1;SDS_P2;PMS_P1;PMS_P2;Temp;Humidity;BMP_temperature;BMP_pressure;BME280_temperature;BME280_humidity;BME280_pressure;Samples;Min_cycle;Max_cycle;Signal;HPM_P1;HPM_P2
2024/03/02 00:00:43;;;;;;;;;;;7.60;99.90;;;;;;5025539;28;19992;-78
2024/03/02 00:03:14;;;;;;;;;;;7.50;99.90;;;;;;5024503;28;19994;-77
2024/03/02 00:05:39;;;;;;;;;;;7.50;99.90;;;;;;5024042;28;20146;-77
2024/03/02 00:08:06;;;;;;;;;;;7.70;99.90;;;;;;5025638;28;20872;-77
2024/03/02 00:10:37;;;;;;;;;;;7.70;99.90;;;;;;5025972;28;19986;-77
2024/03/02 00:13:02;;;;;;;;;;;7.70;99.90;;;;;;5025067;28;19997;-77
2024/03/02 00:15:28;;;;;;;;;;;7.70;99.90;;;;;;5025260;28;19986;-77
2024/03/02 00:17:54;;;;;;;;;;;7.80;99.90;;;;;;5025141;28;19986;-78
2024/03/02 00:20:21;;;;;;;;;;;7.80;99.90;;;;;;5025121;28;20001;-77
2024/03/02 00:22:47;;;;;;;;;;;7.70;99.90;;;;;;5024837;28;19993;-77
2024/03/02 00:25:13;;;;;;;;;;;7.80;99.90;;;;;;5024421;28;20363;-77
2024/03/02 00:27:38;;;;;;;;;;;7.70;99.90;;;;;;5020570;28;19985;-77
2024/03/02 00:30:36;;;;;;;;;;;7.70;99.90;;;;;;5025313;28;19986;-77
2024/03/02 00:33:02;;;;;;;;;;;7.80;99.90;;;;;;5024718;28;19994;-77
2024/03/02 00:35:27;;;;;;;;;;;7.80;99.90;;;;;;5024929;28;20115;-77
2024/03/02 00:37:54;;;;;;;;;;;7.70;99.90;;;;;;5024481;28;19996;-77
2024/03/02 00:40:20;;;;;;;;;;;7.60;99.90;;;;;;5024515;28;19990;-77
2024/03/02 00:42:45;;;;;;;;;;;7.70;99.90;;;;;;5023285;28;19997;-77
2024/03/02 00:45:12;;;;;;;;;;;7.70;99.90;;;;;;5025099;28;20108;-78
2024/03/02 00:47:38;;;;;;;;;;;7.70;99.90;;;;;;5024187;28;20001;-77
2024/03/02 00:50:05;;;;;;;;;;;7.60;99.90;;;;;;5023451;28;20021;-78
2024/03/02 00:52:32;;;;;;;;;;;7.70;99.90;;;;;;5024384;28;19990;-78
2024/03/02 00:54:58;;;;;;;;;;;7.60;99.90;;;;;;5024599;28;19990;-77
2024/03/02 00:57:25;;;;;;;;;;;7.60;99.90;;;;;;5024554;28;20424;-78
2024/03/02 00:59:51;;;;;;;;;;;7.70;99.90;;;;;;5024187;28;20050;-78
2024/03/02 01:02:17;;;;;;;;;;;7.60;99.90;;;;;;5023566;28;20726;-78
2024/03/02 01:04:42;;;;;;;;;;;7.70;99.90;;;;;;5022980;28;20013;-78
2024/03/02 01:07:08;;;;;;;;;;;7.60;99.90;;;;;;5024109;28;19997;-77
2024/03/02 01:09:33;;;;;;;;;;;7.60;99.90;;;;;;5024330;28;19989;-77
2024/03/02 01:11:59;;;;;;;;;;;7.60;99.90;;;;;;5022586;28;19994;-77
2024/03/02 01:14:25;;;;;;;;;;;7.60;99.90;;;;;;5024528;28;20101;-77
2024/03/02 01:16:51;;;;;;;;;;;7.60;99.90;;;;;;5023686;28;19986;-77
2024/03/02 01:19:16;;;;;;;;;;;7.60;99.90;;;;;;5023847;28;19996;-77
2024/03/02 01:21:42;;;;;;;;;;;7.60;99.90;;;;;;5023639;28;19990;-77
2024/03/02 01:24:08;;;;;;;;;;;7.60;99.90;;;;;;5023729;28;20010;-76
2024/03/02 01:26:33;;;;;;;;;;;7.60;99.90;;;;;;5023016;28;20449;-78
2024/03/02 01:28:59;;;;;;;;;;;7.50;99.90;;;;;;5020716;28;19989;-76
2024/03/02 01:31:24;;;;;;;;;;;7.60;99.90;;;;;;5022233;28;19993;-77
2024/03/02 01:33:50;;;;;;;;;;;7.50;99.90;;;;;;5023221;28;19994;-77
2024/03/02 01:36:15;;;;;;;;;;;7.50;99.90;;;;;;5023030;28;20116;-78
2024/03/02 01:38:41;;;;;;;;;;;7.50;99.90;;;;;;5016689;28;19996;-78
2024/03/02 01:41:07;;;;;;;;;;;7.50;99.90;;;;;;5023010;28;19993;-78
2024/03/02 01:43:32;;;;;;;;;;;7.50;99.90;;;;;;5023771;28;20132;-79
2024/03/02 01:45:58;;;;;;;;;;;7.50;99.90;;;;;;5023622;28;20028;-78
2024/03/02 01:48:24;;;;;;;;;;;7.50;99.90;;;;;;5023087;28;20360;-80
2024/03/02 01:50:50;;;;;;;;;;;7.50;99.90;;;;;;5022516;28;20025;-79
2024/03/02 01:53:16;;;;;;;;;;;7.50;99.90;;;;;;5022246;28;19986;-80
2024/03/02 01:55:41;;;;;;;;;;;7.40;99.90;;;;;;5023618;28;20372;-80
2024/03/02 01:58:07;;;;;;;;;;;7.50;99.90;;;;;;5021802;28;19986;-80
2024/03/02 02:00:33;;;;;;;;;;;7.50;99.90;;;;;;5022507;28;20025;-79
2024/03/02 02:02:58;;;;;;;;;;;7.50;99.90;;;;;;5022996;28;20509;-80
2024/03/02 02:05:24;;;;;;;;;;;7.50;99.90;;;;;;5022017;28;20052;-79
2024/03/02 02:07:49;;;;;;;;;;;7.40;99.90;;;;;;5022389;28;20052;-80
2024/03/02 02:10:15;;;;;;;;;;;7.40;99.90;;;;;;5022977;28;20104;-79
2024/03/02 02:12:41;;;;;;;;;;;7.40;99.90;;;;;;5022285;28;19986;-78
2024/03/02 02:15:22;;;;;;;;;;;7.40;99.90;;;;;;5023106;28;19990;-78
2024/03/02 02:17:48;;;;;;;;;;;7.40;99.90;;;;;;5022968;28;20001;-78
2024/03/02 02:20:13;;;;;;;;;;;7.50;99.90;;;;;;5022873;28;19985;-79
2024/03/02 02:22:39;;;;;;;;;;;7.40;99.90;;;;;;5022487;28;20110;-79
2024/03/02 02:25:05;;;;;;;;;;;7.40;99.90;;;;;;5022338;28;20084;-78
2024/03/02 02:27:30;;;;;;;;;;;7.50;99.90;;;;;;5020760;28;20076;-78
2024/03/02 02:29:56;;;;;;;;;;;7.40;99.90;;;;;;5021832;28;19990;-79
2024/03/02 02:32:22;;;;;;;;;;;7.40;99.90;;;;;;5022353;28;20100;-78
2024/03/02 02:34:52;;;;;;;;;;;7.40;99.90;;;;;;5022268;28;19993;-79
2024/03/02 02:37:17;;;;;;;;;;;7.40;99.90;;;;;;5012771;28;20029;-78
2024/03/02 02:39:43;;;;;;;;;;;7.40;99.90;;;;;;5020765;28;20077;-77
2024/03/02 02:42:09;;;;;;;;;;;7.40;99.90;;;;;;5022400;28;20084;-78
2024/03/02 02:44:34;;;;;;;;;;;7.40;99.90;;;;;;5018028;28;20028;-76
2024/03/02 02:47:00;;;;;;;;;;;7.40;99.90;;;;;;5022730;28;20085;-77
2024/03/02 02:49:25;;;;;;;;;;;7.40;99.90;;;;;;5022445;28;20058;-76
2024/03/02 02:51:51;;;;;;;;;;;7.40;99.90;;;;;;5022143;28;19997;-76
2024/03/02 02:54:17;;;;;;;;;;;7.40;99.90;;;;;;5017440;28;20051;-78
2024/03/02 02:56:43;;;;;;;;;;;7.40;99.90;;;;;;5020113;28;19990;-78
2024/03/02 02:59:08;;;;;;;;;;;7.40;99.90;;;;;;5022762;28;19990;-79
2024/03/02 03:01:34;;;;;;;;;;;7.40;99.90;;;;;;5021183;28;20741;-79
2024/03/02 03:03:59;;;;;;;;;;;7.30;99.90;;;;;;5022270;28;20006;-78
2024/03/02 03:06:25;;;;;;;;;;;7.40;99.90;;;;;;5022159;28;20046;-79
2024/03/02 03:08:50;;;;;;;;;;;7.40;99.90;;;;;;5022164;28;19985;-79
2024/03/02 03:11:16;;;;;;;;;;;7.30;99.90;;;;;;5014188;28;20025;-78
2024/03/02 03:13:41;;;;;;;;;;;7.40;99.90;;;;;;5022586;28;20048;-78
2024/03/02 03:16:07;;;;;;;;;;;7.40;99.90;;;;;;5022389;28;20020;-79
2024/03/02 03:18:33;;;;;;;;;;;7.30;99.90;;;;;;5022205;28;19989;-78
2024/03/02 03:20:58;;;;;;;;;;;7.30;99.90;;;;;;5021696;28;19990;-79
2024/03/02 03:23:25;;;;;;;;;;;7.30;99.90;;;;;;5021175;28;19989;-79
2024/03/02 03:25:51;;;;;;;;;;;7.30;99.90;;;;;;5020706;28;19994;-79
2024/03/02 03:28:17;;;;;;;;;;;7.30;99.90;;;;;;5021975;28;20345;-80
2024/03/02 03:30:43;;;;;;;;;;;7.30;99.90;;;;;;5022146;28;20013;-78
2024/03/02 03:33:09;;;;;;;;;;;7.30;99.90;;;;;;5021244;28;19994;-79
2024/03/02 03:35:36;;;;;;;;;;;7.30;99.90;;;;;;5020125;28;20035;-80
2024/03/02 03:38:02;;;;;;;;;;;7.30;99.90;;;;;;5021708;28;20285;-79
2024/03/02 03:40:27;;;;;;;;;;;7.20;99.90;;;;;;5022214;28;19994;-78
2024/03/02 03:42:53;;;;;;;;;;;7.20;99.90;;;;;;5021297;28;20364;-78
2024/03/02 03:45:19;;;;;;;;;;;7.20;99.90;;;;;;5021292;28;20096;-78
2024/03/02 03:47:44;;;;;;;;;;;7.30;99.90;;;;;;5020352;28;20012;-77
2024/03/02 03:50:10;;;;;;;;;;;7.20;99.90;;;;;;5021232;28;20723;-78
2024/03/02 03:52:35;;;;;;;;;;;7.20;99.90;;;;;;5021291;28;20067;-77
2024/03/02 03:55:02;;;;;;;;;;;7.20;99.90;;;;;;5021282;28;19998;-78
2024/03/02 03:57:27;;;;;;;;;;;7.20;99.90;;;;;;5020487;28;19986;-77
2024/03/02 03:59:53;;;;;;;;;;;7.20;99.90;;;;;;5020805;28;20453;-78
2024/03/02 04:02:19;;;;;;;;;;;7.20;99.90;;;;;;5021719;28;19990;-78
2024/03/02 04:04:45;;;;;;;;;;;7.20;99.90;;;;;;5021145;28;20739;-78
2024/03/02 04:07:10;;;;;;;;;;;7.20;99.90;;;;;;5020562;28;19990;-78
2024/03/02 04:09:36;;;;;;;;;;;7.20;99.90;;;;;;5019863;28;20425;-77
2024/03/02 04:12:01;;;;;;;;;;;7.10;99.90;;;;;;5021167;28;20025;-77
2024/03/02 04:14:27;;;;;;;;;;;7.10;99.90;;;;;;5021705;28;20081;-79
2024/03/02 04:16:52;;;;;;;;;;;7.10;99.90;;;;;;5024047;28;20036;-77
2024/03/02 04:19:18;;;;;;;;;;;7.10;99.90;;;;;;5025301;28;19994;-78
2024/03/02 04:21:44;;;;;;;;;;;7.10;99.90;;;;;;5024870;28;20025;-79
2024/03/02 04:24:09;;;;;;;;;;;7.10;99.90;;;;;;5023407;28;20080;-77
2024/03/02 04:26:35;;;;;;;;;;;7.10;99.90;;;;;;5023261;28;20100;-78
2024/03/02 04:29:01;;;;;;;;;;;7.10;99.90;;;;;;5021435;28;19997;-76
2024/03/02 04:31:27;;;;;;;;;;;7.10;99.90;;;;;;5013714;28;20036;-77
2024/03/02 04:33:54;;;;;;;;;;;7.00;99.90;;;;;;5022387;28;20441;-77
2024/03/02 04:36:19;;;;;;;;;;;7.00;99.90;;;;;;5022575;28;19996;-77
2024/03/02 04:38:45;;;;;;;;;;;7.10;99.90;;;;;;5023611;28;19986;-77
2024/03/02 04:41:10;;;;;;;;;;;7.00;99.90;;;;;;5024437;28;19990;-76
2024/03/02 04:43:36;;;;;;;;;;;7.00;99.90;;;;;;5024280;28;19994;-77
2024/03/02 04:46:01;;;;;;;;;;;7.00;99.90;;;;;;5023253;28;20273;-77
2024/03/02 04:48:27;;;;;;;;;;;7.10;99.90;;;;;;5024697;28;20001;-78
2024/03/02 04:50:52;;;;;;;;;;;7.10;99.90;;;;;;5024481;28;20029;-78
2024/03/02 04:53:18;;;;;;;;;;;7.00;99.90;;;;;;5024525;28;19986;-77
2024/03/02 04:58:09;;;;;;;;;;;7.00;99.90;;;;;;5024369;28;19990;-78
2024/03/02 05:00:35;;;;;;;;;;;7.10;99.90;;;;;;5024085;28;19986;-78
2024/03/02 05:03:01;;;;;;;;;;;7.10;99.90;;;;;;5024068;28;19997;-77
2024/03/02 05:05:26;;;;;;;;;;;7.10;99.90;;;;;;5018408;28;20377;-78
2024/03/02 05:07:52;;;;;;;;;;;7.10;99.90;;;;;;5024105;28;19994;-78
2024/03/02 05:10:17;;;;;;;;;;;7.10;99.90;;;;;;5023815;28;20000;-76
2024/03/02 05:15:10;;;;;;;;;;;7.10;99.90;;;;;;5024243;28;19993;-78
2024/03/02 05:17:35;;;;;;;;;;;7.00;99.90;;;;;;5024172;28;19990;-79
2024/03/02 05:20:01;;;;;;;;;;;7.10;99.90;;;;;;5023355;28;19990;-78
2024/03/02 05:22:27;;;;;;;;;;;7.10;99.90;;;;;;5023741;28;19993;-78
2024/03/02 05:24:52;;;;;;;;;;;7.10;99.90;;;;;;5024401;28;20493;-77
2024/03/02 05:27:18;;;;;;;;;;;7.10;99.90;;;;;;5022210;28;19994;-78
2024/03/02 05:29:44;;;;;;;;;;;7.10;99.90;;;;;;5024000;28;20645;-77
2024/03/02 05:32:09;;;;;;;;;;;7.10;99.90;;;;;;5022349;28;20503;-77
2024/03/02 05:34:35;;;;;;;;;;;7.10;99.90;;;;;;5023545;28;20538;-78
2024/03/02 05:37:01;;;;;;;;;;;7.10;99.90;;;;;;5023388;28;20123;-78
2024/03/02 05:39:26;;;;;;;;;;;7.10;99.90;;;;;;5022642;28;20067;-78
2024/03/02 05:41:52;;;;;;;;;;;7.10;99.90;;;;;;5022490;28;19993;-78
2024/03/02 05:44:18;;;;;;;;;;;7.10;99.90;;;;;;5024003;28;19998;-77
2024/03/02 05:46:44;;;;;;;;;;;7.10;99.90;;;;;;5022661;28;19990;-78
2024/03/02 05:49:09;;;;;;;;;;;7.10;99.90;;;;;;5023361;28;20588;-77
2024/03/02 05:51:35;;;;;;;;;;;7.10;99.90;;;;;;5019778;28;19990;-76
2024/03/02 05:54:01;;;;;;;;;;;7.00;99.90;;;;;;5022501;28;19986;-78
2024/03/02 05:56:27;;;;;;;;;;;7.10;99.90;;;;;;5022490;28;20019;-78
2024/03/02 06:01:36;;;;;;;;;;;7.00;99.90;;;;;;5020086;28;19989;-78
2024/03/02 06:04:02;;;;;;;;;;;7.10;99.90;;;;;;5022238;28;20009;-77
2024/03/02 06:06:28;;;;;;;;;;;7.10;99.90;;;;;;5023078;28;20109;-78
2024/03/02 06:08:53;;;;;;;;;;;7.10;99.90;;;;;;5018883;28;19997;-78
2024/03/02 06:11:19;;;;;;;;;;;7.10;99.90;;;;;;5021228;28;21145;-78
2024/03/02 06:13:45;;;;;;;;;;;7.10;99.90;;;;;;5022084;28;19993;-78
2024/03/02 06:16:10;;;;;;;;;;;7.10;99.90;;;;;;5022244;28;20544;-78
2024/03/02 06:18:36;;;;;;;;;;;7.10;99.90;;;;;;5021074;28;19986;-77
2024/03/02 06:21:02;;;;;;;;;;;7.10;99.90;;;;;;5022347;28;20434;-77
2024/03/02 06:23:27;;;;;;;;;;;7.10;99.90;;;;;;5022282;28;19994;-77
2024/03/02 06:25:53;;;;;;;;;;;7.10;99.90;;;;;;5022519;28;19993;-76
2024/03/02 06:28:18;;;;;;;;;;;7.10;99.90;;;;;;5022244;28;20784;-77
2024/03/02 06:30:45;;;;;;;;;;;7.10;99.90;;;;;;5019054;28;19989;-78
2024/03/02 06:33:10;;;;;;;;;;;7.10;99.90;;;;;;5022318;28;20096;-78
2024/03/02 06:35:36;;;;;;;;;;;7.10;99.90;;;;;;5022985;28;19986;-78
2024/03/02 06:38:01;;;;;;;;;;;7.10;99.90;;;;;;5021860;28;20434;-77
2024/03/02 06:40:27;;;;;;;;;;;7.10;99.90;;;;;;5019728;28;20798;-78
2024/03/02 06:42:52;;;;;;;;;;;7.20;99.90;;;;;;5022572;28;20477;-77
2024/03/02 06:45:18;;;;;;;;;;;7.20;99.90;;;;;;5020290;28;20080;-78
2024/03/02 06:47:44;;;;;;;;;;;7.20;99.90;;;;;;5020202;28;19990;-79
2024/03/02 06:50:09;;;;;;;;;;;7.20;99.90;;;;;;5022183;28;20112;-77
2024/03/02 06:52:35;;;;;;;;;;;7.20;99.90;;;;;;5021639;28;19981;-78
2024/03/02 06:55:01;;;;;;;;;;;7.20;99.90;;;;;;5022307;28;20890;-76
2024/03/02 06:57:26;;;;;;;;;;;7.20;99.90;;;;;;5021950;28;20465;-77
2024/03/02 06:59:54;;;;;;;;;;;7.20;99.90;;;;;;5021936;28;19990;-76
2024/03/02 07:02:20;;;;;;;;;;;7.20;99.90;;;;;;5018986;28;19998;-79
2024/03/02 07:04:46;;;;;;;;;;;7.20;99.90;;;;;;5019860;28;20010;-77
2024/03/02 07:07:12;;;;;;;;;;;7.20;99.90;;;;;;5021687;28;19993;-78
2024/03/02 07:09:38;;;;;;;;;;;7.20;99.90;;;;;;5022025;28;19993;-79
2024/03/02 07:12:04;;;;;;;;;;;7.20;99.90;;;;;;5022104;28;19982;-80
2024/03/02 07:17:14;;;;;;;;;;;7.30;99.90;;;;;;5021498;28;19988;-78
2024/03/02 07:19:39;;;;;;;;;;;7.10;99.90;;;;;;5020549;28;20420;-78
2024/03/02 07:22:08;;;;;;;;;;;7.20;99.90;;;;;;5020257;28;20469;-78
2024/03/02 07:24:41;;;;;;;;;;;7.10;99.90;;;;;;5019955;28;20002;-78
2024/03/02 07:27:06;;;;;;;;;;;7.10;99.90;;;;;;5020638;28;20077;-78
2024/03/02 07:29:32;;;;;;;;;;;7.10;99.90;;;;;;5017647;28;20072;-78
2024/03/02 07:31:57;;;;;;;;;;;7.20;99.90;;;;;;5018175;28;19991;-77
2024/03/02 07:34:23;;;;;;;;;;;7.10;99.90;;;;;;5017217;28;19997;-77
2024/03/02 07:36:49;;;;;;;;;;;7.10;99.90;;;;;;5018380;28;19989;-77
2024/03/02 07:39:14;;;;;;;;;;;7.20;99.90;;;;;;5015788;28;20077;-77
2024/03/02 07:41:40;;;;;;;;;;;7.00;99.90;;;;;;5021055;28;20001;-79
2024/03/02 07:44:05;;;;;;;;;;;6.90;99.90;;;;;;5019171;28;20016;-78
2024/03/02 07:46:31;;;;;;;;;;;7.00;99.90;;;;;;5021410;28;19990;-78
2024/03/02 07:48:56;;;;;;;;;;;7.10;99.90;;;;;;5022135;28;20581;-79
2024/03/02 07:51:22;;;;;;;;;;;7.20;99.90;;;;;;5053009;28;19993;-79
2024/03/02 07:53:47;;;;;;;;;;;7.30;99.90;;;;;;5023265;28;20001;-78
2024/03/02 07:56:13;;;;;;;;;;;7.50;99.90;;;;;;5025000;28;20039;-78
2024/03/02 07:58:39;;;;;;;;;;;7.50;99.90;;;;;;5021979;28;20040;-78
2024/03/02 08:01:05;;;;;;;;;;;7.40;99.90;;;;;;5023478;28;20843;-78
2024/03/02 08:03:32;;;;;;;;;;;7.30;99.90;;;;;;5024376;28;19985;-78
2024/03/02 08:05:58;;;;;;;;;;;7.40;99.90;;;;;;5020017;28;20042;-78
2024/03/02 08:08:24;;;;;;;;;;;7.40;99.90;;;;;;5025662;28;19986;-78
2024/03/02 08:10:49;;;;;;;;;;;7.30;99.90;;;;;;5023182;28;20628;-77
2024/03/02 08:13:15;;;;;;;;;;;7.30;99.90;;;;;;5026357;28;20876;-78
2024/03/02 08:15:41;;;;;;;;;;;7.30;99.90;;;;;;5021561;28;19982;-77
2024/03/02 08:18:06;;;;;;;;;;;7.30;99.90;;;;;;5021354;28;19981;-79
2024/03/02 08:20:32;;;;;;;;;;;7.40;99.90;;;;;;5025888;28;19990;-78
2024/03/02 08:22:58;;;;;;;;;;;7.40;99.90;;;;;;5019853;28;20017;-78
2024/03/02 08:25:23;;;;;;;;;;;7.50;99.90;;;;;;5023189;28;20005;-77
2024/03/02 08:27:49;;;;;;;;;;;7.50;99.90;;;;;;5017026;28;19994;-78
2024/03/02 08:30:14;;;;;;;;;;;7.60;99.90;;;;;;5016614;28;20032;-78
2024/03/02 08:32:40;;;;;;;;;;;7.60;99.90;;;;;;5023666;28;20319;-78
2024/03/02 08:35:06;;;;;;;;;;;7.70;99.90;;;;;;5024587;28;20349;-78
2024/03/02 08:37:32;;;;;;;;;;;7.70;99.90;;;;;;5014187;28;19982;-78
2024/03/02 08:39:57;;;;;;;;;;;7.80;99.90;;;;;;5023418;28;20377;-77
2024/03/02 08:42:23;;;;;;;;;;;8.00;99.90;;;;;;5023827;28;19993;-76
2024/03/02 08:44:49;;;;;;;;;;;8.10;99.90;;;;;;5022323;28;19997;-75
2024/03/02 08:47:14;;;;;;;;;;;8.10;99.90;;;;;;5021270;28;20476;-76
2024/03/02 08:49:40;;;;;;;;;;;8.10;99.90;;;;;;5021568;28;20022;-76
2024/03/02 08:52:05;;;;;;;;;;;8.10;99.90;;;;;;5019984;28;20376;-75
2024/03/02 08:54:33;;;;;;;;;;;8.10;99.90;;;;;;5022646;28;20013;-78
2024/03/02 08:56:59;;;;;;;;;;;8.10;99.90;;;;;;5022415;28;19989;-76
2024/03/02 08:59:25;;;;;;;;;;;8.30;99.90;;;;;;5022777;28;19990;-73
2024/03/02 09:01:50;;;;;;;;;;;8.30;99.90;;;;;;5024139;28;20082;-75
2024/03/02 09:04:16;;;;;;;;;;;8.20;99.90;;;;;;5013421;28;20009;-74
2024/03/02 09:06:42;;;;;;;;;;;8.40;99.90;;;;;;5014963;28;20047;-75
2024/03/02 09:09:08;;;;;;;;;;;8.50;99.90;;;;;;5021775;28;19986;-74
2024/03/02 09:11:34;;;;;;;;;;;8.50;99.90;;;;;;5022856;28;20514;-74
2024/03/02 09:13:59;;;;;;;;;;;8.50;99.90;;;;;;5036445;28;20101;-74
2024/03/02 09:16:30;;;;;;;;;;;8.60;99.90;;;;;;5015357;28;19986;-75
2024/03/02 09:18:56;;;;;;;;;;;8.70;99.90;;;;;;5021584;28;19989;-75
2024/03/02 09:21:22;;;;;;;;;;;8.90;99.90;;;;;;5018197;28;19981;-73
2024/03/02 09:23:48;;;;;;;;;;;8.80;99.90;;;;;;5025235;28;19993;-74
2024/03/02 09:26:14;;;;;;;;;;;8.70;99.90;;;;;;5020016;28;20354;-74
2024/03/02 09:28:43;;;;;;;;;;;8.60;99.90;;;;;;5021032;28;19996;-74
2024/03/02 09:31:09;;;;;;;;;;;8.50;99.90;;;;;;5021654;28;19982;-76
2024/03/02 09:33:34;;;;;;;;;;;8.50;99.90;;;;;;5022817;28;19992;-79
2024/03/02 09:36:00;;;;;;;;;;;8.50;99.90;;;;;;5024486;28;19997;-78
2024/03/02 09:38:25;;;;;;;;;;;8.50;99.90;;;;;;5023808;28;19993;-78
2024/03/02 09:40:51;;;;;;;;;;;8.50;99.90;;;;;;5021900;28;20031;-78
2024/03/02 09:43:17;;;;;;;;;;;8.60;99.90;;;;;;5021868;28;19990;-78
2024/03/02 09:45:43;;;;;;;;;;;8.70;99.90;;;;;;5020507;28;19998;-78
2024/03/02 09:48:08;;;;;;;;;;;8.70;99.90;;;;;;5022249;28;20052;-74
2024/03/02 09:50:34;;;;;;;;;;;8.80;99.60;;;;;;5021648;28;20028;-74
2024/03/02 09:52:59;;;;;;;;;;;8.70;99.80;;;;;;5020107;28;20000;-74
2024/03/02 09:55:25;;;;;;;;;;;8.70;99.60;;;;;;5020497;28;19986;-74
2024/03/02 09:57:51;;;;;;;;;;;8.70;99.40;;;;;;5023625;28;20403;-73
2024/03/02 10:00:17;;;;;;;;;;;8.70;99.30;;;;;;5023751;28;19992;-74
2024/03/02 10:02:43;;;;;;;;;;;8.90;98.70;;;;;;5017040;28;19985;-78
2024/03/02 10:05:08;;;;;;;;;;;8.80;98.60;;;;;;5021334;28;20483;-73
2024/03/02 10:07:34;;;;;;;;;;;8.90;98.50;;;;;;5018688;28;20150;-75
2024/03/02 10:10:11;;;;;;;;;;;9.00;98.20;;;;;;5021825;28;20795;-77
2024/03/02 10:12:37;;;;;;;;;;;9.00;98.10;;;;;;5022502;28;19996;-76
2024/03/02 10:15:03;;;;;;;;;;;9.10;97.30;;;;;;5021521;28;20419;-76
2024/03/02 10:17:30;;;;;;;;;;;9.10;96.80;;;;;;5020516;28;19990;-76
2024/03/02 10:19:56;;;;;;;;;;;9.10;97.10;;;;;;5023185;28;20040;-76
2024/03/02 10:22:23;;;;;;;;;;;9.10;96.80;;;;;;5022302;28;20068;-76
2024/03/02 10:24:49;;;;;;;;;;;9.10;96.10;;;;;;5023081;28;20064;-76
2024/03/02 10:27:22;;;;;;;;;;;9.10;95.80;;;;;;5022757;28;20520;-77
2024/03/02 10:29:48;;;;;;;;;;;9.20;95.70;;;;;;5023059;28;20084;-76
2024/03/02 10:32:13;;;;;;;;;;;9.10;94.80;;;;;;5021700;28;19990;-76
2024/03/02 10:34:42;;;;;;;;;;;9.20;95.40;;;;;;5023099;28;19988;-76
2024/03/02 10:37:08;;;;;;;;;;;9.30;95.10;;;;;;5022846;28;19989;-76
2024/03/02 10:39:35;;;;;;;;;;;9.30;94.70;;;;;;5023233;28;20051;-76
2024/03/02 10:42:03;;;;;;;;;;;9.30;94.40;;;;;;5023085;28;19986;-76
2024/03/02 10:44:29;;;;;;;;;;;9.40;94.10;;;;;;5021587;28;20021;-76
2024/03/02 10:46:55;;;;;;;;;;;9.30;94.00;;;;;;5015523;28;20544;-78
2024/03/02 10:49:22;;;;;;;;;;;9.40;93.70;;;;;;5020007;28;20028;-76
2024/03/02 10:51:48;;;;;;;;;;;9.50;93.00;;;;;;5022439;28;20001;-76
2024/03/02 10:54:13;;;;;;;;;;;9.50;93.10;;;;;;5022210;28;19986;-77
2024/03/02 10:56:40;;;;;;;;;;;9.60;93.10;;;;;;5020654;28;19996;-76
2024/03/02 10:59:16;;;;;;;;;;;9.70;92.70;;;;;;5020044;28;19997;-75
2024/03/02 11:01:42;;;;;;;;;;;9.70;92.60;;;;;;5022583;28;20091;-76
2024/03/02 11:04:08;;;;;;;;;;;9.80;92.80;;;;;;5020707;28;20005;-77
2024/03/02 11:06:38;;;;;;;;;;;9.90;92.80;;;;;;5021921;28;20036;-82
2024/03/02 11:09:05;;;;;;;;;;;9.90;92.80;;;;;;5020198;28;20063;-77
2024/03/02 11:11:34;;;;;;;;;;;10.20;92.20;;;;;;5022213;28;20005;-79
2024/03/02 11:14:04;;;;;;;;;;;10.40;92.30;;;;;;5020285;28;20369;-79
2024/03/02 11:16:36;;;;;;;;;;;10.50;91.80;;;;;;5020456;28;20990;-76
2024/03/02 11:19:06;;;;;;;;;;;10.60;91.60;;;;;;5022072;28;19998;-76
2024/03/02 11:21:33;;;;;;;;;;;10.90;91.20;;;;;;5021908;28;20747;-75
2024/03/02 11:23:59;;;;;;;;;;;11.10;91.30;;;;;;5021869;28;20032;-76
2024/03/02 11:26:24;;;;;;;;;;;11.20;91.10;;;;;;5023204;28;20011;-76
2024/03/02 11:28:50;;;;;;;;;;;11.40;91.10;;;;;;5026068;28;20765;-76
2024/03/02 11:31:16;;;;;;;;;;;11.40;90.80;;;;;;5025393;28;20175;-75
2024/03/02 11:33:42;;;;;;;;;;;11.50;91.20;;;;;;5024454;28;19990;-77
2024/03/02 11:36:08;;;;;;;;;;;11.60;90.90;;;;;;5025784;28;19990;-77
2024/03/02 11:38:34;;;;;;;;;;;11.80;90.50;;;;;;5026177;28;20013;-76
2024/03/02 11:41:01;;;;;;;;;;;11.80;90.10;;;;;;5024912;28;19993;-77
2024/03/02 11:43:30;;;;;;;;;;;11.90;88.60;;;;;;5025221;28;20025;-76
2024/03/02 11:45:59;;;;;;;;;;;12.00;89.20;;;;;;5024910;28;20001;-76
2024/03/02 11:48:25;;;;;;;;;;;11.90;88.80;;;;;;5024118;28;21184;-76
2024/03/02 11:50:51;;;;;;;;;;;12.10;87.30;;;;;;5025057;28;20025;-77
2024/03/02 11:53:18;;;;;;;;;;;12.30;87.90;;;;;;5025040;28;20000;-76
2024/03/02 11:55:46;;;;;;;;;;;12.00;87.80;;;;;;5025041;28;19997;-76
2024/03/02 11:58:12;;;;;;;;;;;11.90;88.80;;;;;;5025326;28;20012;-76
2024/03/02 12:00:38;;;;;;;;;;;11.70;88.50;;;;;;5020547;28;19993;-77
2024/03/02 12:03:06;;;;;;;;;;;11.60;88.90;;;;;;5025243;28;20060;-76
2024/03/02 12:05:32;;;;;;;;;;;11.30;89.70;;;;;;5025124;28;20002;-77
2024/03/02 12:07:58;;;;;;;;;;;11.60;89.30;;;;;;5023236;28;20735;-77
2024/03/02 12:10:24;;;;;;;;;;;11.90;87.70;;;;;;5024808;28;19982;-76
2024/03/02 12:13:00;;;;;;;;;;;12.10;86.60;;;;;;5023879;28;20044;-77
2024/03/02 12:15:26;;;;;;;;;;;12.20;85.50;;;;;;5017576;28;20452;-76
2024/03/02 12:17:53;;;;;;;;;;;12.20;85.10;;;;;;5023022;28;19998;-76
2024/03/02 12:20:18;;;;;;;;;;;12.30;84.30;;;;;;5024968;28;20043;-77
2024/03/02 12:22:44;;;;;;;;;;;12.30;83.50;;;;;;5018548;28;19989;-77
2024/03/02 12:25:09;;;;;;;;;;;12.60;82.40;;;;;;5023459;28;20016;-77
2024/03/02 12:27:35;;;;;;;;;;;12.40;81.90;;;;;;5024147;28;19997;-77
2024/03/02 12:30:01;;;;;;;;;;;11.90;81.50;;;;;;5024889;28;19985;-77
2024/03/02 12:32:27;;;;;;;;;;;11.70;84.30;;;;;;5022528;28;19996;-76
2024/03/02 12:34:52;;;;;;;;;;;11.50;84.10;;;;;;5022527;28;19989;-77
2024/03/02 12:37:18;;;;;;;;;;;11.50;83.20;;;;;;5018826;28;20013;-78
2024/03/02 12:39:47;;;;;;;;;;;11.90;81.30;;;;;;5023757;28;19990;-78
2024/03/02 12:42:12;;;;;;;;;;;12.10;79.90;;;;;;5022458;28;20586;-76
2024/03/02 12:44:39;;;;;;;;;;;12.10;78.80;;;;;;5024943;28;20096;-76
2024/03/02 12:47:05;;;;;;;;;;;12.20;78.50;;;;;;5023552;28;20428;-76
2024/03/02 12:49:32;;;;;;;;;;;12.20;78.10;;;;;;5021612;28;20017;-76
2024/03/02 12:51:57;;;;;;;;;;;12.00;78.50;;;;;;5021159;28;19993;-76
2024/03/02 12:54:24;;;;;;;;;;;11.80;79.70;;;;;;5022748;28;20036;-76
2024/03/02 12:56:50;;;;;;;;;;;12.00;79.40;;;;;;5023115;28;20080;-76
2024/03/02 12:59:21;;;;;;;;;;;12.40;76.20;;;;;;5023617;28;19986;-76
2024/03/02 13:01:53;;;;;;;;;;;12.80;76.10;;;;;;5023105;28;20445;-76
2024/03/02 13:04:21;;;;;;;;;;;13.00;74.30;;;;;;5017254;28;20465;-76
2024/03/02 13:06:47;;;;;;;;;;;13.00;73.20;;;;;;5023226;28;20080;-76
2024/03/02 13:09:14;;;;;;;;;;;13.20;74.40;;;;;;5023911;28;19996;-76
2024/03/02 13:11:41;;;;;;;;;;;13.20;72.80;;;;;;5023125;28;20080;-76
2024/03/02 13:14:06;;;;;;;;;;;13.40;73.20;;;;;;5021773;28;19990;-76
2024/03/02 13:16:37;;;;;;;;;;;13.20;70.80;;;;;;5023004;28;19993;-76
2024/03/02 13:19:03;;;;;;;;;;;13.00;71.20;;;;;;5023483;28;19993;-76
2024/03/02 13:21:28;;;;;;;;;;;13.00;69.30;;;;;;5021964;28;20043;-76
2024/03/02 13:23:54;;;;;;;;;;;13.10;69.70;;;;;;5022664;28;20060;-76
2024/03/02 13:26:20;;;;;;;;;;;13.00;68.40;;;;;;5023263;28;19993;-75
2024/03/02 13:28:45;;;;;;;;;;;13.10;68.90;;;;;;5021145;28;20044;-77
2024/03/02 13:31:12;;;;;;;;;;;13.30;68.10;;;;;;5016315;28;19986;-77
2024/03/02 13:33:37;;;;;;;;;;;13.50;68.20;;;;;;5023981;28;19989;-83
2024/03/02 13:36:03;;;;;;;;;;;13.30;68.60;;;;;;5024587;28;20733;-74
2024/03/02 13:38:28;;;;;;;;;;;13.40;68.40;;;;;;5024475;28;20092;-74
2024/03/02 13:40:54;;;;;;;;;;;13.10;67.00;;;;;;5024222;28;20097;-73
2024/03/02 13:43:19;;;;;;;;;;;13.00;68.30;;;;;;5024535;28;20085;-75
2024/03/02 13:45:45;;;;;;;;;;;12.80;68.20;;;;;;5023432;28;20079;-75
2024/03/02 13:48:11;;;;;;;;;;;12.70;68.70;;;;;;5024565;28;19994;-79
2024/03/02 13:50:36;;;;;;;;;;;12.50;69.60;;;;;;5024166;28;20028;-75
2024/03/02 13:53:03;;;;;;;;;;;12.40;68.90;;;;;;5023624;28;20008;-77
2024/03/02 13:55:28;;;;;;;;;;;12.40;68.50;;;;;;5024502;28;19986;-75
2024/03/02 13:57:54;;;;;;;;;;;12.30;68.80;;;;;;5023801;28;20456;-75
2024/03/02 14:00:20;;;;;;;;;;;12.30;68.30;;;;;;5023496;28;19997;-76
2024/03/02 14:02:45;;;;;;;;;;;12.40;68.50;;;;;;5023323;28;20001;-75
2024/03/02 14:05:11;;;;;;;;;;;12.50;68.70;;;;;;5023665;28;20139;-78
2024/03/02 14:07:40;;;;;;;;;;;12.50;69.60;;;;;;5023318;28;20388;-74
2024/03/02 14:10:06;;;;;;;;;;;12.40;69.80;;;;;;5023864;28;19993;-78
2024/03/02 14:12:32;;;;;;;;;;;12.30;70.70;;;;;;5023328;28;20802;-78
2024/03/02 14:14:58;;;;;;;;;;;12.30;69.80;;;;;;5023841;28;20017;-77
2024/03/02 14:17:26;;;;;;;;;;;12.20;71.00;;;;;;5021484;28;20699;-77
2024/03/02 14:19:53;;;;;;;;;;;12.20;71.40;;;;;;5023732;28;20020;-76
2024/03/02 14:22:19;;;;;;;;;;;12.20;71.60;;;;;;5023332;28;20818;-74
2024/03/02 14:24:45;;;;;;;;;;;12.20;72.90;;;;;;5023268;28;20002;-77
2024/03/02 14:27:10;;;;;;;;;;;12.20;72.10;;;;;;5021639;28;20092;-74
2024/03/02 14:29:37;;;;;;;;;;;12.20;72.50;;;;;;5022747;28;19986;-74